sensor_id;sensor_type;location;lat;lon;timestamp;P1;durP1;ratioP1;P2;durP2;ratioP2
48667;SDS011;34453;52.198;5.004;2022-08-14T00:01:04;3.70;;;2.97;;
48667;SDS011;34453;52.198;5.004;2022-08-14T00:03:30;3.42;;;3.13;;
48667;SDS011;34453;52.198;5.004;2022-08-14T00:05:57;3.30;;;3.10;;
48667;SDS011;34453;52.198;5.004;2022-08-14T00:08:23;3.60;;;3.40;;
48667;SDS011;34453;52.198;5.004;2022-08-14T00:10:49;3.78;;;3.58;;
48667;SDS011;34453;52.198;5.004;2022-08-14T00:13:15;3.40;;;3.15;;
48667;SDS011;34453;52.198;5.004;2022-08-14T00:15:43;4.10;;;3.72;;
48667;SDS011;34453;52.198;5.004;2022-08-14T00:18:12;3.78;;;3.58;;
48667;SDS011;34453;52.198;5.004;2022-08-14T00:20:40;3.70;;;3.50;;
48667;SDS011;34453;52.198;5.004;2022-08-14T00:23:08;3.47;;;3.28;;
48667;SDS011;34453;52.198;5.004;2022-08-14T00:25:34;8.57;;;4.05;;
48667;SDS011;34453;52.198;5.004;2022-08-14T00:28:00;3.95;;;3.75;;
48667;SDS011;34453;52.198;5.004;2022-08-14T00:30:27;5.95;;;4.00;;
48667;SDS011;34453;52.198;5.004;2022-08-14T00:32:53;3.97;;;3.80;;
48667;SDS011;34453;52.198;5.004;2022-08-14T00:35:18;4.72;;;4.25;;
48667;SDS011;34453;52.198;5.004;2022-08-14T00:37:44;14.60;;;5.38;;
48667;SDS011;34453;52.198;5.004;2022-08-14T00:40:12;4.45;;;4.15;;
48667;SDS011;34453;52.198;5.004;2022-08-14T00:42:39;4.82;;;4.38;;
48667;SDS011;34453;52.198;5.004;2022-08-14T00:45:05;5.15;;;4.57;;
48667;SDS011;34453;52.198;5.004;2022-08-14T00:47:32;8.05;;;4.53;;
48667;SDS011;34453;52.198;5.004;2022-08-14T00:49:59;4.20;;;3.90;;
48667;SDS011;34453;52.198;5.004;2022-08-14T00:52:26;4.65;;;4.22;;
48667;SDS011;34453;52.198;5.004;2022-08-14T00:54:52;5.50;;;5.03;;
48667;SDS011;34453;52.198;5.004;2022-08-14T00:57:22;10.27;;;4.88;;
48667;SDS011;34453;52.198;5.004;2022-08-14T00:59:48;5.22;;;4.78;;
48667;SDS011;34453;52.198;5.004;2022-08-14T01:02:14;4.82;;;4.53;;
48667;SDS011;34453;52.198;5.004;2022-08-14T01:04:43;4.95;;;4.55;;
48667;SDS011;34453;52.198;5.004;2022-08-14T01:07:09;5.07;;;4.60;;
48667;SDS011;34453;52.198;5.004;2022-08-14T01:09:36;5.10;;;4.70;;
48667;SDS011;34453;52.198;5.004;2022-08-14T01:12:02;5.68;;;4.32;;
48667;SDS011;34453;52.198;5.004;2022-08-14T01:14:29;5.28;;;4.70;;
48667;SDS011;34453;52.198;5.004;2022-08-14T01:16:55;5.15;;;4.78;;
48667;SDS011;34453;52.198;5.004;2022-08-14T01:19:22;4.80;;;4.40;;
48667;SDS011;34453;52.198;5.004;2022-08-14T01:22:08;4.75;;;4.32;;
48667;SDS011;34453;52.198;5.004;2022-08-14T01:24:37;5.05;;;4.47;;
48667;SDS011;34453;52.198;5.004;2022-08-14T01:27:02;5.00;;;4.72;;
48667;SDS011;34453;52.198;5.004;2022-08-14T01:29:29;5.75;;;4.63;;
48667;SDS011;34453;52.198;5.004;2022-08-14T01:32:02;5.03;;;4.75;;
48667;SDS011;34453;52.198;5.004;2022-08-14T01:34:29;6.43;;;5.43;;
48667;SDS011;34453;52.198;5.004;2022-08-14T01:36:57;4.93;;;4.72;;
48667;SDS011;34453;52.198;5.004;2022-08-14T01:39:24;5.38;;;5.07;;
48667;SDS011;34453;52.198;5.004;2022-08-14T01:41:49;7.88;;;5.05;;
48667;SDS011;34453;52.198;5.004;2022-08-14T01:44:25;5.18;;;4.75;;
48667;SDS011;34453;52.198;5.004;2022-08-14T01:46:54;4.97;;;4.68;;
48667;SDS011;34453;52.198;5.004;2022-08-14T01:49:21;5.28;;;4.88;;
48667;SDS011;34453;52.198;5.004;2022-08-14T01:51:47;5.40;;;4.93;;
48667;SDS011;34453;52.198;5.004;2022-08-14T01:54:15;5.35;;;5.03;;
48667;SDS011;34453;52.198;5.004;2022-08-14T01:56:44;5.30;;;5.00;;
48667;SDS011;34453;52.198;5.004;2022-08-14T01:59:20;5.93;;;5.35;;
48667;SDS011;34453;52.198;5.004;2022-08-14T02:01:57;5.88;;;5.43;;
48667;SDS011;34453;52.198;5.004;2022-08-14T02:04:31;8.25;;;5.30;;
48667;SDS011;34453;52.198;5.004;2022-08-14T02:06:58;5.57;;;5.10;;
48667;SDS011;34453;52.198;5.004;2022-08-14T02:09:24;5.80;;;5.32;;
48667;SDS011;34453;52.198;5.004;2022-08-14T02:11:50;5.80;;;5.22;;
48667;SDS011;34453;52.198;5.004;2022-08-14T02:14:17;9.32;;;5.03;;
48667;SDS011;34453;52.198;5.004;2022-08-14T02:16:44;8.60;;;4.72;;
48667;SDS011;34453;52.198;5.004;2022-08-14T02:19:14;5.93;;;5.35;;
48667;SDS011;34453;52.198;5.004;2022-08-14T02:21:44;5.47;;;4.97;;
48667;SDS011;34453;52.198;5.004;2022-08-14T02:24:11;7.30;;;6.07;;
48667;SDS011;34453;52.198;5.004;2022-08-14T02:26:40;5.90;;;5.38;;
48667;SDS011;34453;52.198;5.004;2022-08-14T02:29:12;6.63;;;5.95;;
48667;SDS011;34453;52.198;5.004;2022-08-14T02:31:41;6.78;;;6.22;;
48667;SDS011;34453;52.198;5.004;2022-08-14T02:34:09;7.25;;;6.65;;
48667;SDS011;34453;52.198;5.004;2022-08-14T02:36:42;6.18;;;5.82;;
48667;SDS011;34453;52.198;5.004;2022-08-14T02:39:09;6.57;;;6.13;;
48667;SDS011;34453;52.198;5.004;2022-08-14T02:41:35;8.50;;;5.85;;
48667;SDS011;34453;52.198;5.004;2022-08-14T02:44:02;6.00;;;5.60;;
48667;SDS011;34453;52.198;5.004;2022-08-14T02:46:29;7.10;;;6.50;;
48667;SDS011;34453;52.198;5.004;2022-08-14T02:48:55;6.88;;;5.70;;
48667;SDS011;34453;52.198;5.004;2022-08-14T02:51:21;5.80;;;5.43;;
48667;SDS011;34453;52.198;5.004;2022-08-14T02:53:46;9.45;;;6.65;;
48667;SDS011;34453;52.198;5.004;2022-08-14T02:56:13;12.02;;;6.13;;
48667;SDS011;34453;52.198;5.004;2022-08-14T02:58:43;7.82;;;6.43;;
48667;SDS011;34453;52.198;5.004;2022-08-14T03:01:13;6.27;;;5.67;;
48667;SDS011;34453;52.198;5.004;2022-08-14T03:03:40;6.53;;;5.90;;
48667;SDS011;34453;52.198;5.004;2022-08-14T03:06:07;8.13;;;6.13;;
48667;SDS011;34453;52.198;5.004;2022-08-14T03:08:34;6.93;;;6.40;;
48667;SDS011;34453;52.198;5.004;2022-08-14T03:11:05;5.63;;;5.28;;
48667;SDS011;34453;52.198;5.004;2022-08-14T03:13:33;7.15;;;6.07;;
48667;SDS011;34453;52.198;5.004;2022-08-14T03:16:10;6.13;;;5.65;;
48667;SDS011;34453;52.198;5.004;2022-08-14T03:18:43;6.68;;;6.18;;
48667;SDS011;34453;52.198;5.004;2022-08-14T03:21:10;6.93;;;6.32;;
48667;SDS011;34453;52.198;5.004;2022-08-14T03:23:39;6.90;;;6.20;;
48667;SDS011;34453;52.198;5.004;2022-08-14T03:26:10;6.30;;;6.00;;
48667;SDS011;34453;52.198;5.004;2022-08-14T03:28:47;6.30;;;5.82;;
48667;SDS011;34453;52.198;5.004;2022-08-14T03:31:15;7.38;;;6.88;;
48667;SDS011;34453;52.198;5.004;2022-08-14T03:33:41;6.57;;;6.07;;
48667;SDS011;34453;52.198;5.004;2022-08-14T03:36:09;7.28;;;6.30;;
48667;SDS011;34453;52.198;5.004;2022-08-14T03:41:10;6.70;;;6.20;;
48667;SDS011;34453;52.198;5.004;2022-08-14T03:43:43;6.90;;;6.03;;
48667;SDS011;34453;52.198;5.004;2022-08-14T03:46:10;7.38;;;6.63;;
48667;SDS011;34453;52.198;5.004;2022-08-14T03:48:37;7.13;;;6.63;;
48667;SDS011;34453;52.198;5.004;2022-08-14T03:51:04;7.63;;;6.93;;
48667;SDS011;34453;52.198;5.004;2022-08-14T03:53:32;13.50;;;7.47;;
48667;SDS011;34453;52.198;5.004;2022-08-14T03:55:59;7.65;;;7.10;;
48667;SDS011;34453;52.198;5.004;2022-08-14T03:58:25;8.45;;;6.65;;
48667;SDS011;34453;52.198;5.004;2022-08-14T04:00:50;7.50;;;6.82;;
48667;SDS011;34453;52.198;5.004;2022-08-14T04:03:16;8.93;;;8.10;;
48667;SDS011;34453;52.198;5.004;2022-08-14T04:05:41;7.18;;;6.78;;
48667;SDS011;34453;52.198;5.004;2022-08-14T04:08:10;7.93;;;7.10;;
48667;SDS011;34453;52.198;5.004;2022-08-14T04:10:36;7.38;;;6.70;;
48667;SDS011;34453;52.198;5.004;2022-08-14T04:13:03;6.95;;;6.35;;
48667;SDS011;34453;52.198;5.004;2022-08-14T04:15:33;7.82;;;7.30;;
48667;SDS011;34453;52.198;5.004;2022-08-14T04:18:04;8.48;;;7.78;;
48667;SDS011;34453;52.198;5.004;2022-08-14T04:20:32;7.47;;;6.97;;
48667;SDS011;34453;52.198;5.004;2022-08-14T04:22:59;10.90;;;7.00;;
48667;SDS011;34453;52.198;5.004;2022-08-14T04:25:24;7.93;;;7.32;;
48667;SDS011;34453;52.198;5.004;2022-08-14T04:27:50;8.35;;;7.60;;
48667;SDS011;34453;52.198;5.004;2022-08-14T04:30:15;7.50;;;7.00;;
48667;SDS011;34453;52.198;5.004;2022-08-14T04:32:41;7.40;;;6.93;;
48667;SDS011;34453;52.198;5.004;2022-08-14T04:35:06;7.97;;;7.45;;
48667;SDS011;34453;52.198;5.004;2022-08-14T04:37:32;10.95;;;7.55;;
48667;SDS011;34453;52.198;5.004;2022-08-14T04:40:16;8.48;;;7.78;;
48667;SDS011;34453;52.198;5.004;2022-08-14T04:43:00;8.60;;;7.90;;
48667;SDS011;34453;52.198;5.004;2022-08-14T04:45:44;8.23;;;7.45;;
48667;SDS011;34453;52.198;5.004;2022-08-14T04:48:13;9.00;;;8.32;;
48667;SDS011;34453;52.198;5.004;2022-08-14T04:50:44;9.68;;;7.55;;
48667;SDS011;34453;52.198;5.004;2022-08-14T04:53:16;8.82;;;8.07;;
48667;SDS011;34453;52.198;5.004;2022-08-14T04:55:43;7.93;;;7.20;;
48667;SDS011;34453;52.198;5.004;2022-08-14T04:58:15;7.30;;;6.90;;
48667;SDS011;34453;52.198;5.004;2022-08-14T05:00:46;9.02;;;8.15;;
48667;SDS011;34453;52.198;5.004;2022-08-14T05:03:16;7.78;;;7.22;;
48667;SDS011;34453;52.198;5.004;2022-08-14T05:05:45;8.15;;;7.55;;
48667;SDS011;34453;52.198;5.004;2022-08-14T05:08:14;9.45;;;8.10;;
48667;SDS011;34453;52.198;5.004;2022-08-14T05:10:44;7.63;;;6.80;;
48667;SDS011;34453;52.198;5.004;2022-08-14T05:13:20;9.32;;;8.60;;
48667;SDS011;34453;52.198;5.004;2022-08-14T05:15:47;8.88;;;8.23;;
48667;SDS011;34453;52.198;5.004;2022-08-14T05:18:17;10.43;;;8.63;;
48667;SDS011;34453;52.198;5.004;2022-08-14T05:20:48;8.43;;;7.82;;
48667;SDS011;34453;52.198;5.004;2022-08-14T05:23:17;9.85;;;8.52;;
48667;SDS011;34453;52.198;5.004;2022-08-14T05:25:45;8.23;;;7.53;;
48667;SDS011;34453;52.198;5.004;2022-08-14T05:30:43;7.93;;;7.13;;
48667;SDS011;34453;52.198;5.004;2022-08-14T05:33:13;8.93;;;8.32;;
48667;SDS011;34453;52.198;5.004;2022-08-14T05:35:40;8.38;;;7.78;;
48667;SDS011;34453;52.198;5.004;2022-08-14T05:38:08;8.48;;;7.93;;
48667;SDS011;34453;52.198;5.004;2022-08-14T05:40:40;8.27;;;7.68;;
48667;SDS011;34453;52.198;5.004;2022-08-14T05:43:06;9.60;;;8.40;;
48667;SDS011;34453;52.198;5.004;2022-08-14T05:45:32;8.75;;;7.78;;
48667;SDS011;34453;52.198;5.004;2022-08-14T05:47:59;11.10;;;8.40;;
48667;SDS011;34453;52.198;5.004;2022-08-14T05:50:25;8.40;;;7.70;;
48667;SDS011;34453;52.198;5.004;2022-08-14T05:52:52;8.50;;;7.93;;
48667;SDS011;34453;52.198;5.004;2022-08-14T05:55:18;8.25;;;7.57;;
48667;SDS011;34453;52.198;5.004;2022-08-14T05:57:54;8.15;;;7.55;;
48667;SDS011;34453;52.198;5.004;2022-08-14T06:00:23;8.63;;;8.13;;
48667;SDS011;34453;52.198;5.004;2022-08-14T06:02:51;8.57;;;7.90;;
48667;SDS011;34453;52.198;5.004;2022-08-14T06:05:17;9.00;;;8.32;;
48667;SDS011;34453;52.198;5.004;2022-08-14T06:07:43;9.52;;;8.63;;
48667;SDS011;34453;52.198;5.004;2022-08-14T06:10:08;8.85;;;8.00;;
48667;SDS011;34453;52.198;5.004;2022-08-14T06:12:34;8.82;;;8.18;;
48667;SDS011;34453;52.198;5.004;2022-08-14T06:15:00;8.95;;;8.20;;
48667;SDS011;34453;52.198;5.004;2022-08-14T06:17:26;11.63;;;8.75;;
48667;SDS011;34453;52.198;5.004;2022-08-14T06:19:52;9.00;;;8.23;;
48667;SDS011;34453;52.198;5.004;2022-08-14T06:22:18;9.77;;;8.88;;
48667;SDS011;34453;52.198;5.004;2022-08-14T06:24:44;9.65;;;8.85;;
48667;SDS011;34453;52.198;5.004;2022-08-14T06:27:09;9.85;;;9.02;;
48667;SDS011;34453;52.198;5.004;2022-08-14T06:29:35;9.05;;;8.25;;
48667;SDS011;34453;52.198;5.004;2022-08-14T06:32:02;10.10;;;9.25;;
48667;SDS011;34453;52.198;5.004;2022-08-14T06:34:28;9.95;;;9.15;;
48667;SDS011;34453;52.198;5.004;2022-08-14T06:36:53;9.40;;;8.70;;
48667;SDS011;34453;52.198;5.004;2022-08-14T06:39:21;10.10;;;9.40;;
48667;SDS011;34453;52.198;5.004;2022-08-14T06:41:47;9.63;;;8.77;;
48667;SDS011;34453;52.198;5.004;2022-08-14T06:44:13;10.55;;;9.65;;
48667;SDS011;34453;52.198;5.004;2022-08-14T06:46:39;9.93;;;9.23;;
48667;SDS011;34453;52.198;5.004;2022-08-14T06:49:05;13.25;;;8.93;;
48667;SDS011;34453;52.198;5.004;2022-08-14T06:51:31;18.45;;;9.68;;
48667;SDS011;34453;52.198;5.004;2022-08-14T06:53:57;10.32;;;9.38;;
48667;SDS011;34453;52.198;5.004;2022-08-14T06:56:22;9.52;;;8.70;;
48667;SDS011;34453;52.198;5.004;2022-08-14T06:58:48;8.90;;;8.30;;
48667;SDS011;34453;52.198;5.004;2022-08-14T07:01:14;13.35;;;9.57;;
48667;SDS011;34453;52.198;5.004;2022-08-14T07:03:58;9.70;;;9.00;;
48667;SDS011;34453;52.198;5.004;2022-08-14T07:06:42;9.82;;;8.68;;
48667;SDS011;34453;52.198;5.004;2022-08-14T07:09:11;8.65;;;7.65;;
48667;SDS011;34453;52.198;5.004;2022-08-14T07:11:37;12.43;;;9.63;;
48667;SDS011;34453;52.198;5.004;2022-08-14T07:14:03;7.93;;;7.38;;
48667;SDS011;34453;52.198;5.004;2022-08-14T07:16:29;11.02;;;8.73;;
48667;SDS011;34453;52.198;5.004;2022-08-14T07:18:55;11.07;;;8.25;;
48667;SDS011;34453;52.198;5.004;2022-08-14T07:21:20;9.07;;;7.95;;
48667;SDS011;34453;52.198;5.004;2022-08-14T07:23:46;9.00;;;8.20;;
48667;SDS011;34453;52.198;5.004;2022-08-14T07:26:11;9.70;;;8.80;;
48667;SDS011;34453;52.198;5.004;2022-08-14T07:28:38;8.52;;;7.88;;
48667;SDS011;34453;52.198;5.004;2022-08-14T07:31:05;9.20;;;7.38;;
48667;SDS011;34453;52.198;5.004;2022-08-14T07:33:38;8.52;;;7.72;;
48667;SDS011;34453;52.198;5.004;2022-08-14T07:36:07;10.95;;;8.02;;
48667;SDS011;34453;52.198;5.004;2022-08-14T07:38:34;13.50;;;7.82;;
48667;SDS011;34453;52.198;5.004;2022-08-14T07:41:00;8.27;;;7.57;;
48667;SDS011;34453;52.198;5.004;2022-08-14T07:43:27;9.07;;;7.68;;
48667;SDS011;34453;52.198;5.004;2022-08-14T07:45:53;9.45;;;7.00;;
48667;SDS011;34453;52.198;5.004;2022-08-14T07:48:19;7.38;;;6.88;;
48667;SDS011;34453;52.198;5.004;2022-08-14T07:50:44;7.28;;;6.78;;
48667;SDS011;34453;52.198;5.004;2022-08-14T07:53:14;9.43;;;7.70;;
48667;SDS011;34453;52.198;5.004;2022-08-14T07:55:40;8.43;;;6.72;;
48667;SDS011;34453;52.198;5.004;2022-08-14T07:58:06;6.50;;;6.13;;
48667;SDS011;34453;52.198;5.004;2022-08-14T08:00:32;7.10;;;6.70;;
48667;SDS011;34453;52.198;5.004;2022-08-14T08:02:58;7.15;;;6.65;;
48667;SDS011;34453;52.198;5.004;2022-08-14T08:05:24;8.23;;;6.57;;
48667;SDS011;34453;52.198;5.004;2022-08-14T08:07:50;7.15;;;6.68;;
48667;SDS011;34453;52.198;5.004;2022-08-14T08:10:18;6.55;;;6.05;;
48667;SDS011;34453;52.198;5.004;2022-08-14T08:13:03;6.45;;;5.93;;
48667;SDS011;34453;52.198;5.004;2022-08-14T08:15:44;7.07;;;5.80;;
48667;SDS011;34453;52.198;5.004;2022-08-14T08:18:11;6.88;;;6.25;;
48667;SDS011;34453;52.198;5.004;2022-08-14T08:20:42;6.18;;;5.63;;
48667;SDS011;34453;52.198;5.004;2022-08-14T08:23:11;6.78;;;5.22;;
48667;SDS011;34453;52.198;5.004;2022-08-14T08:25:38;8.00;;;5.82;;
48667;SDS011;34453;52.198;5.004;2022-08-14T08:28:11;6.00;;;5.70;;
48667;SDS011;34453;52.198;5.004;2022-08-14T08:30:48;6.13;;;5.63;;
48667;SDS011;34453;52.198;5.004;2022-08-14T08:33:14;9.65;;;5.95;;
48667;SDS011;34453;52.198;5.004;2022-08-14T08:35:40;6.22;;;5.82;;
48667;SDS011;34453;52.198;5.004;2022-08-14T08:38:07;6.03;;;5.38;;
48667;SDS011;34453;52.198;5.004;2022-08-14T08:40:35;9.00;;;5.20;;
48667;SDS011;34453;52.198;5.004;2022-08-14T08:43:04;5.95;;;5.45;;
48667;SDS011;34453;52.198;5.004;2022-08-14T08:45:32;8.15;;;5.38;;
48667;SDS011;34453;52.198;5.004;2022-08-14T08:48:00;6.50;;;6.00;;
48667;SDS011;34453;52.198;5.004;2022-08-14T08:50:29;5.85;;;5.45;;
48667;SDS011;34453;52.198;5.004;2022-08-14T08:53:01;6.68;;;5.50;;
48667;SDS011;34453;52.198;5.004;2022-08-14T08:55:32;6.65;;;6.13;;
48667;SDS011;34453;52.198;5.004;2022-08-14T08:58:13;5.15;;;4.95;;
48667;SDS011;34453;52.198;5.004;2022-08-14T09:00:41;5.57;;;5.28;;
48667;SDS011;34453;52.198;5.004;2022-08-14T09:03:11;6.72;;;5.72;;
48667;SDS011;34453;52.198;5.004;2022-08-14T09:08:23;9.35;;;5.07;;
48667;SDS011;34453;52.198;5.004;2022-08-14T09:10:50;7.78;;;5.35;;
48667;SDS011;34453;52.198;5.004;2022-08-14T09:13:16;7.88;;;5.75;;
48667;SDS011;34453;52.198;5.004;2022-08-14T09:15:44;6.10;;;5.68;;
48667;SDS011;34453;52.198;5.004;2022-08-14T09:18:12;5.82;;;5.25;;
48667;SDS011;34453;52.198;5.004;2022-08-14T09:20:44;5.75;;;5.18;;
48667;SDS011;34453;52.198;5.004;2022-08-14T09:23:11;5.50;;;5.00;;
48667;SDS011;34453;52.198;5.004;2022-08-14T09:25:38;7.28;;;5.20;;
48667;SDS011;34453;52.198;5.004;2022-08-14T09:28:06;5.00;;;4.70;;
48667;SDS011;34453;52.198;5.004;2022-08-14T09:30:33;6.05;;;5.40;;
48667;SDS011;34453;52.198;5.004;2022-08-14T09:33:03;6.15;;;5.55;;
48667;SDS011;34453;52.198;5.004;2022-08-14T09:38:25;5.85;;;5.38;;
48667;SDS011;34453;52.198;5.004;2022-08-14T09:40:58;4.97;;;4.75;;
48667;SDS011;34453;52.198;5.004;2022-08-14T09:46:24;16.77;;;5.43;;
48667;SDS011;34453;52.198;5.004;2022-08-14T09:49:02;6.35;;;5.78;;
48667;SDS011;34453;52.198;5.004;2022-08-14T09:51:29;5.60;;;4.75;;
48667;SDS011;34453;52.198;5.004;2022-08-14T09:56:44;5.53;;;5.15;;
48667;SDS011;34453;52.198;5.004;2022-08-14T09:59:12;6.53;;;4.90;;
48667;SDS011;34453;52.198;5.004;2022-08-14T10:01:41;5.07;;;4.63;;
48667;SDS011;34453;52.198;5.004;2022-08-14T10:04:18;4.30;;;4.10;;
48667;SDS011;34453;52.198;5.004;2022-08-14T10:06:44;5.32;;;4.85;;
48667;SDS011;34453;52.198;5.004;2022-08-14T10:09:10;5.03;;;4.10;;
48667;SDS011;34453;52.198;5.004;2022-08-14T10:11:37;5.15;;;4.65;;
48667;SDS011;34453;52.198;5.004;2022-08-14T10:14:13;4.57;;;4.22;;
48667;SDS011;34453;52.198;5.004;2022-08-14T10:16:47;4.40;;;4.05;;
48667;SDS011;34453;52.198;5.004;2022-08-14T10:19:18;4.75;;;4.35;;
48667;SDS011;34453;52.198;5.004;2022-08-14T10:22:02;3.72;;;3.42;;
48667;SDS011;34453;52.198;5.004;2022-08-14T10:24:35;4.68;;;4.38;;
48667;SDS011;34453;52.198;5.004;2022-08-14T10:27:26;9.10;;;4.40;;
48667;SDS011;34453;52.198;5.004;2022-08-14T10:29:52;7.10;;;3.90;;
48667;SDS011;34453;52.198;5.004;2022-08-14T10:32:24;5.28;;;4.30;;
48667;SDS011;34453;52.198;5.004;2022-08-14T10:34:51;3.50;;;3.30;;
48667;SDS011;34453;52.198;5.004;2022-08-14T10:37:36;4.35;;;4.07;;
48667;SDS011;34453;52.198;5.004;2022-08-14T10:40:06;3.40;;;3.20;;
48667;SDS011;34453;52.198;5.004;2022-08-14T10:42:36;4.22;;;3.83;;
48667;SDS011;34453;52.198;5.004;2022-08-14T10:45:23;7.20;;;3.60;;
48667;SDS011;34453;52.198;5.004;2022-08-14T10:47:54;3.30;;;3.10;;
48667;SDS011;34453;52.198;5.004;2022-08-14T10:50:28;2.50;;;2.40;;
48667;SDS011;34453;52.198;5.004;2022-08-14T10:52:58;2.90;;;2.80;;
48667;SDS011;34453;52.198;5.004;2022-08-14T10:55:30;10.05;;;2.90;;
48667;SDS011;34453;52.198;5.004;2022-08-14T10:57:58;4.15;;;3.30;;
48667;SDS011;34453;52.198;5.004;2022-08-14T11:00:25;2.95;;;2.72;;
48667;SDS011;34453;52.198;5.004;2022-08-14T11:02:59;3.20;;;3.10;;
48667;SDS011;34453;52.198;5.004;2022-08-14T11:05:37;3.30;;;3.10;;
48667;SDS011;34453;52.198;5.004;2022-08-14T11:08:05;2.95;;;2.67;;
48667;SDS011;34453;52.198;5.004;2022-08-14T11:13:19;3.13;;;2.80;;
48667;SDS011;34453;52.198;5.004;2022-08-14T11:15:47;3.08;;;2.90;;
48667;SDS011;34453;52.198;5.004;2022-08-14T11:18:14;3.35;;;2.90;;
48667;SDS011;34453;52.198;5.004;2022-08-14T11:20:44;8.93;;;2.60;;
48667;SDS011;34453;52.198;5.004;2022-08-14T11:23:24;3.47;;;3.10;;
48667;SDS011;34453;52.198;5.004;2022-08-14T11:25:52;5.00;;;2.90;;
48667;SDS011;34453;52.198;5.004;2022-08-14T11:28:24;5.97;;;2.55;;
48667;SDS011;34453;52.198;5.004;2022-08-14T11:30:51;3.78;;;2.80;;
48667;SDS011;34453;52.198;5.004;2022-08-14T11:33:24;2.78;;;2.58;;
48667;SDS011;34453;52.198;5.004;2022-08-14T11:35:57;3.90;;;2.70;;
48667;SDS011;34453;52.198;5.004;2022-08-14T11:38:26;3.45;;;2.85;;
48667;SDS011;34453;52.198;5.004;2022-08-14T11:40:53;5.35;;;2.30;;
48667;SDS011;34453;52.198;5.004;2022-08-14T11:43:22;3.72;;;2.40;;
48667;SDS011;34453;52.198;5.004;2022-08-14T11:45:50;6.70;;;2.83;;
48667;SDS011;34453;52.198;5.004;2022-08-14T11:50:41;3.83;;;3.13;;
48667;SDS011;34453;52.198;5.004;2022-08-14T11:53:29;3.58;;;2.20;;
48667;SDS011;34453;52.198;5.004;2022-08-14T11:56:02;3.95;;;2.30;;
48667;SDS011;34453;52.198;5.004;2022-08-14T11:58:33;4.50;;;2.47;;
48667;SDS011;34453;52.198;5.004;2022-08-14T12:01:05;3.00;;;2.17;;
48667;SDS011;34453;52.198;5.004;2022-08-14T12:03:39;2.30;;;2.20;;
48667;SDS011;34453;52.198;5.004;2022-08-14T12:06:10;3.65;;;2.22;;
48667;SDS011;34453;52.198;5.004;2022-08-14T12:08:40;1.83;;;1.83;;
48667;SDS011;34453;52.198;5.004;2022-08-14T12:11:09;3.63;;;2.85;;
48667;SDS011;34453;52.198;5.004;2022-08-14T12:13:40;2.20;;;2.10;;
48667;SDS011;34453;52.198;5.004;2022-08-14T12:16:08;3.83;;;2.13;;
48667;SDS011;34453;52.198;5.004;2022-08-14T12:18:42;2.22;;;2.10;;
48667;SDS011;34453;52.198;5.004;2022-08-14T12:21:16;2.50;;;2.40;;
48667;SDS011;34453;52.198;5.004;2022-08-14T12:23:44;2.20;;;2.10;;
48667;SDS011;34453;52.198;5.004;2022-08-14T12:26:16;2.28;;;2.10;;
48667;SDS011;34453;52.198;5.004;2022-08-14T12:28:50;4.22;;;2.10;;
48667;SDS011;34453;52.198;5.004;2022-08-14T12:31:17;2.78;;;2.58;;
48667;SDS011;34453;52.198;5.004;2022-08-14T12:33:59;2.20;;;2.10;;
48667;SDS011;34453;52.198;5.004;2022-08-14T12:36:27;3.45;;;2.35;;
48667;SDS011;34453;52.198;5.004;2022-08-14T12:38:57;3.85;;;2.75;;
48667;SDS011;34453;52.198;5.004;2022-08-14T12:41:29;3.58;;;2.58;;
48667;SDS011;34453;52.198;5.004;2022-08-14T12:46:33;9.10;;;2.50;;
48667;SDS011;34453;52.198;5.004;2022-08-14T12:49:11;3.00;;;2.80;;
48667;SDS011;34453;52.198;5.004;2022-08-14T12:51:43;2.92;;;2.22;;
48667;SDS011;34453;52.198;5.004;2022-08-14T12:54:20;3.78;;;2.70;;
48667;SDS011;34453;52.198;5.004;2022-08-14T12:56:46;2.70;;;2.50;;
48667;SDS011;34453;52.198;5.004;2022-08-14T12:59:13;2.50;;;2.40;;
48667;SDS011;34453;52.198;5.004;2022-08-14T13:01:40;3.13;;;2.92;;
48667;SDS011;34453;52.198;5.004;2022-08-14T13:04:13;3.28;;;2.28;;
48667;SDS011;34453;52.198;5.004;2022-08-14T13:06:42;2.38;;;2.17;;
48667;SDS011;34453;52.198;5.004;2022-08-14T13:09:14;3.90;;;1.90;;
48667;SDS011;34453;52.198;5.004;2022-08-14T13:11:49;2.45;;;2.30;;
48667;SDS011;34453;52.198;5.004;2022-08-14T13:14:17;2.25;;;1.90;;
48667;SDS011;34453;52.198;5.004;2022-08-14T13:16:48;5.28;;;2.28;;
48667;SDS011;34453;52.198;5.004;2022-08-14T13:19:19;2.42;;;1.60;;
48667;SDS011;34453;52.198;5.004;2022-08-14T13:21:47;7.88;;;2.00;;
48667;SDS011;34453;52.198;5.004;2022-08-14T13:24:15;2.25;;;2.05;;
48667;SDS011;34453;52.198;5.004;2022-08-14T13:29:19;2.97;;;2.35;;
48667;SDS011;34453;52.198;5.004;2022-08-14T13:31:52;1.92;;;1.92;;
48667;SDS011;34453;52.198;5.004;2022-08-14T13:34:23;3.10;;;2.17;;
48667;SDS011;34453;52.198;5.004;2022-08-14T13:36:50;2.10;;;1.98;;
48667;SDS011;34453;52.198;5.004;2022-08-14T13:39:18;2.17;;;2.08;;
48667;SDS011;34453;52.198;5.004;2022-08-14T13:41:45;2.03;;;1.92;;
48667;SDS011;34453;52.198;5.004;2022-08-14T13:44:12;2.40;;;2.20;;
48667;SDS011;34453;52.198;5.004;2022-08-14T13:46:40;2.25;;;1.88;;
48667;SDS011;34453;52.198;5.004;2022-08-14T13:49:11;1.88;;;1.77;;
48667;SDS011;34453;52.198;5.004;2022-08-14T13:51:42;2.47;;;2.28;;
48667;SDS011;34453;52.198;5.004;2022-08-14T13:54:16;5.18;;;1.98;;
48667;SDS011;34453;52.198;5.004;2022-08-14T13:56:48;2.15;;;2.00;;
48667;SDS011;34453;52.198;5.004;2022-08-14T13:59:15;3.72;;;1.77;;
48667;SDS011;34453;52.198;5.004;2022-08-14T14:01:41;5.15;;;2.05;;
48667;SDS011;34453;52.198;5.004;2022-08-14T14:04:14;2.10;;;1.95;;
48667;SDS011;34453;52.198;5.004;2022-08-14T14:06:45;2.13;;;2.08;;
48667;SDS011;34453;52.198;5.004;2022-08-14T14:09:20;3.28;;;2.00;;
48667;SDS011;34453;52.198;5.004;2022-08-14T14:11:59;4.88;;;2.38;;
48667;SDS011;34453;52.198;5.004;2022-08-14T14:14:25;2.30;;;2.08;;
48667;SDS011;34453;52.198;5.004;2022-08-14T14:16:52;2.20;;;2.10;;
48667;SDS011;34453;52.198;5.004;2022-08-14T14:19:18;2.42;;;2.22;;
48667;SDS011;34453;52.198;5.004;2022-08-14T14:21:49;1.95;;;1.85;;
48667;SDS011;34453;52.198;5.004;2022-08-14T14:24:20;2.10;;;2.00;;
48667;SDS011;34453;52.198;5.004;2022-08-14T14:26:47;1.90;;;1.80;;
48667;SDS011;34453;52.198;5.004;2022-08-14T14:29:13;1.90;;;1.80;;
48667;SDS011;34453;52.198;5.004;2022-08-14T14:31:42;2.58;;;2.20;;
48667;SDS011;34453;52.198;5.004;2022-08-14T14:34:13;4.72;;;2.10;;
48667;SDS011;34453;52.198;5.004;2022-08-14T14:36:42;5.15;;;2.40;;
48667;SDS011;34453;52.198;5.004;2022-08-14T14:39:09;2.30;;;2.13;;
48667;SDS011;34453;52.198;5.004;2022-08-14T14:41:38;2.78;;;2.58;;
48667;SDS011;34453;52.198;5.004;2022-08-14T14:44:06;2.20;;;2.10;;
48667;SDS011;34453;52.198;5.004;2022-08-14T14:46:36;3.38;;;3.05;;
48667;SDS011;34453;52.198;5.004;2022-08-14T14:49:05;3.58;;;3.28;;
48667;SDS011;34453;52.198;5.004;2022-08-14T14:51:37;3.55;;;2.22;;
48667;SDS011;34453;52.198;5.004;2022-08-14T14:54:04;7.65;;;2.22;;
48667;SDS011;34453;52.198;5.004;2022-08-14T14:56:32;3.55;;;2.40;;
48667;SDS011;34453;52.198;5.004;2022-08-14T14:58:59;4.70;;;2.50;;
48667;SDS011;34453;52.198;5.004;2022-08-14T15:01:25;3.03;;;2.40;;
48667;SDS011;34453;52.198;5.004;2022-08-14T15:03:52;3.50;;;2.50;;
48667;SDS011;34453;52.198;5.004;2022-08-14T15:06:28;5.55;;;2.60;;
48667;SDS011;34453;52.198;5.004;2022-08-14T15:08:57;2.65;;;2.50;;
48667;SDS011;34453;52.198;5.004;2022-08-14T15:11:24;4.25;;;2.90;;
48667;SDS011;34453;52.198;5.004;2022-08-14T15:13:50;3.17;;;2.97;;
48667;SDS011;34453;52.198;5.004;2022-08-14T15:16:21;3.60;;;2.90;;
48667;SDS011;34453;52.198;5.004;2022-08-14T15:18:48;3.20;;;2.60;;
48667;SDS011;34453;52.198;5.004;2022-08-14T15:21:15;3.53;;;3.00;;
48667;SDS011;34453;52.198;5.004;2022-08-14T15:23:43;3.15;;;2.67;;
48667;SDS011;34453;52.198;5.004;2022-08-14T15:26:14;2.63;;;2.53;;